sensor_id;sensor_type;location;lat;lon;timestamp;P1;durP1;ratioP1;P2;durP2;ratioP2
23720;SDS011;42950;52.134;5.578;2023-12-14T00:01:31;26.30;;;17.60;;
23720;SDS011;42950;52.134;5.578;2023-12-14T00:03:57;24.85;;;17.20;;
23720;SDS011;42950;52.134;5.578;2023-12-14T00:06:22;25.42;;;17.17;;
23720;SDS011;42950;52.134;5.578;2023-12-14T00:08:48;24.20;;;17.80;;
23720;SDS011;42950;52.134;5.578;2023-12-14T00:11:13;27.73;;;17.45;;
23720;SDS011;42950;52.134;5.578;2023-12-14T00:13:39;23.15;;;16.33;;
23720;SDS011;42950;52.134;5.578;2023-12-14T00:16:04;24.80;;;17.38;;
23720;SDS011;42950;52.134;5.578;2023-12-14T00:18:31;26.83;;;17.25;;
23720;SDS011;42950;52.134;5.578;2023-12-14T00:20:56;24.58;;;16.27;;
23720;SDS011;42950;52.134;5.578;2023-12-14T00:23:22;25.42;;;17.42;;
23720;SDS011;42950;52.134;5.578;2023-12-14T00:25:48;25.48;;;17.98;;
23720;SDS011;42950;52.134;5.578;2023-12-14T00:28:13;27.42;;;17.00;;
23720;SDS011;42950;52.134;5.578;2023-12-14T00:30:39;23.48;;;16.70;;
23720;SDS011;42950;52.134;5.578;2023-12-14T00:33:05;26.77;;;18.45;;
23720;SDS011;42950;52.134;5.578;2023-12-14T00:35:30;21.70;;;17.00;;
23720;SDS011;42950;52.134;5.578;2023-12-14T00:37:56;23.55;;;16.88;;
23720;SDS011;42950;52.134;5.578;2023-12-14T00:40:22;21.77;;;17.30;;
23720;SDS011;42950;52.134;5.578;2023-12-14T00:42:47;21.60;;;15.93;;
23720;SDS011;42950;52.134;5.578;2023-12-14T00:45:13;20.90;;;15.80;;
23720;SDS011;42950;52.134;5.578;2023-12-14T00:47:38;22.92;;;16.70;;
23720;SDS011;42950;52.134;5.578;2023-12-14T00:50:04;23.02;;;15.60;;
23720;SDS011;42950;52.134;5.578;2023-12-14T00:52:30;20.25;;;15.70;;
23720;SDS011;42950;52.134;5.578;2023-12-14T00:54:56;20.05;;;15.57;;
23720;SDS011;42950;52.134;5.578;2023-12-14T00:57:21;20.80;;;15.80;;
23720;SDS011;42950;52.134;5.578;2023-12-14T00:59:47;19.90;;;16.02;;
23720;SDS011;42950;52.134;5.578;2023-12-14T01:02:13;20.50;;;15.68;;
23720;SDS011;42950;52.134;5.578;2023-12-14T01:04:38;19.23;;;15.20;;
23720;SDS011;42950;52.134;5.578;2023-12-14T01:07:04;18.70;;;15.13;;
23720;SDS011;42950;52.134;5.578;2023-12-14T01:09:29;18.52;;;14.55;;
23720;SDS011;42950;52.134;5.578;2023-12-14T01:11:55;18.98;;;15.13;;
23720;SDS011;42950;52.134;5.578;2023-12-14T01:14:21;18.98;;;14.75;;
23720;SDS011;42950;52.134;5.578;2023-12-14T01:16:46;18.77;;;14.65;;
23720;SDS011;42950;52.134;5.578;2023-12-14T01:19:12;18.08;;;13.80;;
23720;SDS011;42950;52.134;5.578;2023-12-14T01:21:37;19.55;;;14.70;;
23720;SDS011;42950;52.134;5.578;2023-12-14T01:24:03;16.83;;;13.82;;
23720;SDS011;42950;52.134;5.578;2023-12-14T01:26:29;17.90;;;13.68;;
23720;SDS011;42950;52.134;5.578;2023-12-14T01:28:54;16.35;;;13.13;;
23720;SDS011;42950;52.134;5.578;2023-12-14T01:31:20;17.55;;;13.82;;
23720;SDS011;42950;52.134;5.578;2023-12-14T01:33:48;18.42;;;13.63;;
23720;SDS011;42950;52.134;5.578;2023-12-14T01:36:20;17.92;;;13.43;;
23720;SDS011;42950;52.134;5.578;2023-12-14T01:38:46;18.73;;;13.82;;
23720;SDS011;42950;52.134;5.578;2023-12-14T01:41:12;19.00;;;14.45;;
23720;SDS011;42950;52.134;5.578;2023-12-14T01:43:37;16.85;;;14.05;;
23720;SDS011;42950;52.134;5.578;2023-12-14T01:46:03;18.10;;;14.18;;
23720;SDS011;42950;52.134;5.578;2023-12-14T01:48:28;16.90;;;13.73;;
23720;SDS011;42950;52.134;5.578;2023-12-14T01:50:54;15.75;;;12.80;;
23720;SDS011;42950;52.134;5.578;2023-12-14T01:53:20;15.95;;;12.80;;
23720;SDS011;42950;52.134;5.578;2023-12-14T01:55:46;16.95;;;14.15;;
23720;SDS011;42950;52.134;5.578;2023-12-14T01:58:12;15.90;;;13.50;;
23720;SDS011;42950;52.134;5.578;2023-12-14T02:03:15;15.43;;;13.40;;
23720;SDS011;42950;52.134;5.578;2023-12-14T02:05:41;17.60;;;13.57;;
23720;SDS011;42950;52.134;5.578;2023-12-14T02:08:07;16.50;;;14.32;;
23720;SDS011;42950;52.134;5.578;2023-12-14T02:10:33;18.17;;;14.18;;
23720;SDS011;42950;52.134;5.578;2023-12-14T02:13:00;18.23;;;14.25;;
23720;SDS011;42950;52.134;5.578;2023-12-14T02:15:27;17.90;;;14.80;;
23720;SDS011;42950;52.134;5.578;2023-12-14T02:17:52;20.33;;;15.40;;
23720;SDS011;42950;52.134;5.578;2023-12-14T02:20:18;18.50;;;15.02;;
23720;SDS011;42950;52.134;5.578;2023-12-14T02:22:53;17.88;;;14.68;;
23720;SDS011;42950;52.134;5.578;2023-12-14T02:25:19;19.55;;;15.25;;
23720;SDS011;42950;52.134;5.578;2023-12-14T02:27:46;18.05;;;15.10;;
23720;SDS011;42950;52.134;5.578;2023-12-14T02:30:12;20.42;;;15.45;;
23720;SDS011;42950;52.134;5.578;2023-12-14T02:32:39;22.85;;;15.73;;
23720;SDS011;42950;52.134;5.578;2023-12-14T02:35:05;20.60;;;15.85;;
23720;SDS011;42950;52.134;5.578;2023-12-14T02:37:32;18.30;;;14.75;;
23720;SDS011;42950;52.134;5.578;2023-12-14T02:39:58;21.15;;;14.82;;
23720;SDS011;42950;52.134;5.578;2023-12-14T02:42:24;16.67;;;14.25;;
23720;SDS011;42950;52.134;5.578;2023-12-14T02:44:50;17.13;;;14.02;;
23720;SDS011;42950;52.134;5.578;2023-12-14T02:47:15;20.15;;;15.25;;
23720;SDS011;42950;52.134;5.578;2023-12-14T02:49:42;17.00;;;14.57;;
23720;SDS011;42950;52.134;5.578;2023-12-14T02:52:08;16.13;;;14.18;;
23720;SDS011;42950;52.134;5.578;2023-12-14T02:54:34;17.45;;;14.68;;
23720;SDS011;42950;52.134;5.578;2023-12-14T02:56:59;16.73;;;14.20;;
23720;SDS011;42950;52.134;5.578;2023-12-14T02:59:25;17.40;;;14.82;;
23720;SDS011;42950;52.134;5.578;2023-12-14T03:01:50;16.02;;;14.32;;
23720;SDS011;42950;52.134;5.578;2023-12-14T03:04:16;16.48;;;14.05;;
23720;SDS011;42950;52.134;5.578;2023-12-14T03:06:41;18.17;;;14.40;;
23720;SDS011;42950;52.134;5.578;2023-12-14T03:09:07;17.17;;;14.27;;
23720;SDS011;42950;52.134;5.578;2023-12-14T03:11:34;15.13;;;13.52;;
23720;SDS011;42950;52.134;5.578;2023-12-14T03:13:59;15.82;;;14.13;;
23720;SDS011;42950;52.134;5.578;2023-12-14T03:16:25;18.13;;;14.00;;
23720;SDS011;42950;52.134;5.578;2023-12-14T03:18:50;16.23;;;14.07;;
23720;SDS011;42950;52.134;5.578;2023-12-14T03:21:18;16.08;;;13.50;;
23720;SDS011;42950;52.134;5.578;2023-12-14T03:23:44;15.27;;;13.63;;
23720;SDS011;42950;52.134;5.578;2023-12-14T03:26:10;15.85;;;13.73;;
23720;SDS011;42950;52.134;5.578;2023-12-14T03:28:36;19.15;;;13.77;;
23720;SDS011;42950;52.134;5.578;2023-12-14T03:31:01;18.70;;;13.75;;
23720;SDS011;42950;52.134;5.578;2023-12-14T03:33:27;17.42;;;14.00;;
23720;SDS011;42950;52.134;5.578;2023-12-14T03:35:52;19.30;;;13.77;;
23720;SDS011;42950;52.134;5.578;2023-12-14T03:38:18;17.77;;;13.38;;
23720;SDS011;42950;52.134;5.578;2023-12-14T03:40:43;16.77;;;13.68;;
23720;SDS011;42950;52.134;5.578;2023-12-14T03:43:09;16.05;;;13.45;;
23720;SDS011;42950;52.134;5.578;2023-12-14T03:45:35;17.45;;;13.73;;
23720;SDS011;42950;52.134;5.578;2023-12-14T03:48:00;15.73;;;13.27;;
23720;SDS011;42950;52.134;5.578;2023-12-14T03:50:26;15.98;;;13.70;;
23720;SDS011;42950;52.134;5.578;2023-12-14T03:52:53;16.98;;;14.32;;
23720;SDS011;42950;52.134;5.578;2023-12-14T03:55:18;15.23;;;13.52;;
23720;SDS011;42950;52.134;5.578;2023-12-14T03:57:44;15.40;;;13.68;;
23720;SDS011;42950;52.134;5.578;2023-12-14T04:00:10;16.75;;;12.90;;
23720;SDS011;42950;52.134;5.578;2023-12-14T04:02:39;15.13;;;12.93;;
23720;SDS011;42950;52.134;5.578;2023-12-14T04:05:08;17.48;;;13.55;;
23720;SDS011;42950;52.134;5.578;2023-12-14T04:07:37;15.55;;;13.23;;
23720;SDS011;42950;52.134;5.578;2023-12-14T04:10:14;15.10;;;13.00;;
23720;SDS011;42950;52.134;5.578;2023-12-14T04:12:40;15.82;;;12.70;;
23720;SDS011;42950;52.134;5.578;2023-12-14T04:15:09;17.52;;;14.50;;
23720;SDS011;42950;52.134;5.578;2023-12-14T04:17:35;16.83;;;13.93;;
23720;SDS011;42950;52.134;5.578;2023-12-14T04:20:01;16.50;;;13.70;;
23720;SDS011;42950;52.134;5.578;2023-12-14T04:22:31;16.20;;;13.50;;
23720;SDS011;42950;52.134;5.578;2023-12-14T04:24:56;16.42;;;13.70;;
23720;SDS011;42950;52.134;5.578;2023-12-14T04:27:22;19.45;;;14.07;;
23720;SDS011;42950;52.134;5.578;2023-12-14T04:29:52;15.98;;;12.65;;
23720;SDS011;42950;52.134;5.578;2023-12-14T04:32:17;18.20;;;13.23;;
23720;SDS011;42950;52.134;5.578;2023-12-14T04:34:43;18.63;;;13.93;;
23720;SDS011;42950;52.134;5.578;2023-12-14T04:37:08;15.73;;;12.95;;
23720;SDS011;42950;52.134;5.578;2023-12-14T04:39:34;16.92;;;13.35;;
23720;SDS011;42950;52.134;5.578;2023-12-14T04:41:59;16.35;;;13.13;;
23720;SDS011;42950;52.134;5.578;2023-12-14T04:44:25;17.13;;;12.65;;
23720;SDS011;42950;52.134;5.578;2023-12-14T04:46:50;17.60;;;12.85;;
23720;SDS011;42950;52.134;5.578;2023-12-14T04:49:16;15.35;;;12.77;;
23720;SDS011;42950;52.134;5.578;2023-12-14T04:51:42;16.88;;;12.48;;
23720;SDS011;42950;52.134;5.578;2023-12-14T04:54:08;15.20;;;11.52;;
23720;SDS011;42950;52.134;5.578;2023-12-14T04:56:33;16.85;;;11.90;;
23720;SDS011;42950;52.134;5.578;2023-12-14T04:58:59;18.27;;;12.25;;
23720;SDS011;42950;52.134;5.578;2023-12-14T05:01:25;15.63;;;12.30;;
23720;SDS011;42950;52.134;5.578;2023-12-14T05:03:53;15.90;;;11.85;;
23720;SDS011;42950;52.134;5.578;2023-12-14T05:06:20;13.70;;;11.93;;
23720;SDS011;42950;52.134;5.578;2023-12-14T05:08:45;18.33;;;12.65;;
23720;SDS011;42950;52.134;5.578;2023-12-14T05:11:14;18.02;;;12.73;;
23720;SDS011;42950;52.134;5.578;2023-12-14T05:13:40;16.13;;;12.52;;
23720;SDS011;42950;52.134;5.578;2023-12-14T05:16:06;15.15;;;12.38;;
23720;SDS011;42950;52.134;5.578;2023-12-14T05:18:37;17.17;;;11.93;;
23720;SDS011;42950;52.134;5.578;2023-12-14T05:21:02;16.17;;;11.57;;
23720;SDS011;42950;52.134;5.578;2023-12-14T05:23:28;12.43;;;10.60;;
23720;SDS011;42950;52.134;5.578;2023-12-14T05:25:54;17.80;;;11.73;;
23720;SDS011;42950;52.134;5.578;2023-12-14T05:28:19;18.25;;;12.13;;
23720;SDS011;42950;52.134;5.578;2023-12-14T05:30:45;14.45;;;11.60;;
23720;SDS011;42950;52.134;5.578;2023-12-14T05:33:11;14.65;;;11.48;;
23720;SDS011;42950;52.134;5.578;2023-12-14T05:35:36;14.73;;;11.38;;
23720;SDS011;42950;52.134;5.578;2023-12-14T05:38:02;13.50;;;11.05;;
23720;SDS011;42950;52.134;5.578;2023-12-14T05:40:28;15.75;;;11.05;;
23720;SDS011;42950;52.134;5.578;2023-12-14T05:42:54;16.27;;;11.05;;
23720;SDS011;42950;52.134;5.578;2023-12-14T05:45:19;16.50;;;11.48;;
23720;SDS011;42950;52.134;5.578;2023-12-14T05:47:45;13.35;;;11.00;;
23720;SDS011;42950;52.134;5.578;2023-12-14T05:50:10;13.77;;;11.15;;
23720;SDS011;42950;52.134;5.578;2023-12-14T05:52:37;14.98;;;11.77;;
23720;SDS011;42950;52.134;5.578;2023-12-14T05:55:03;17.00;;;11.30;;
23720;SDS011;42950;52.134;5.578;2023-12-14T05:57:29;12.77;;;10.32;;
23720;SDS011;42950;52.134;5.578;2023-12-14T05:59:55;16.60;;;11.52;;
23720;SDS011;42950;52.134;5.578;2023-12-14T06:02:21;15.85;;;11.13;;
23720;SDS011;42950;52.134;5.578;2023-12-14T06:04:47;13.90;;;10.55;;
23720;SDS011;42950;52.134;5.578;2023-12-14T06:07:14;13.85;;;10.65;;
23720;SDS011;42950;52.134;5.578;2023-12-14T06:09:40;12.00;;;10.15;;
23720;SDS011;42950;52.134;5.578;2023-12-14T06:12:06;12.15;;;9.80;;
23720;SDS011;42950;52.134;5.578;2023-12-14T06:14:31;11.20;;;9.60;;
23720;SDS011;42950;52.134;5.578;2023-12-14T06:16:57;12.27;;;9.43;;
23720;SDS011;42950;52.134;5.578;2023-12-14T06:19:23;10.90;;;8.85;;
23720;SDS011;42950;52.134;5.578;2023-12-14T06:21:49;11.05;;;9.13;;
23720;SDS011;42950;52.134;5.578;2023-12-14T06:24:14;10.00;;;8.63;;
23720;SDS011;42950;52.134;5.578;2023-12-14T06:26:43;9.77;;;8.65;;
23720;SDS011;42950;52.134;5.578;2023-12-14T06:29:10;9.30;;;7.97;;
23720;SDS011;42950;52.134;5.578;2023-12-14T06:31:37;9.85;;;8.52;;
23720;SDS011;42950;52.134;5.578;2023-12-14T06:34:03;11.60;;;9.25;;
23720;SDS011;42950;52.134;5.578;2023-12-14T06:36:30;9.18;;;7.93;;
23720;SDS011;42950;52.134;5.578;2023-12-14T06:38:56;9.30;;;8.00;;
23720;SDS011;42950;52.134;5.578;2023-12-14T06:41:26;12.10;;;8.68;;
23720;SDS011;42950;52.134;5.578;2023-12-14T06:43:53;9.98;;;8.52;;
23720;SDS011;42950;52.134;5.578;2023-12-14T06:46:19;10.88;;;8.00;;
23720;SDS011;42950;52.134;5.578;2023-12-14T06:48:45;12.13;;;9.35;;
23720;SDS011;42950;52.134;5.578;2023-12-14T06:51:11;11.00;;;9.85;;
23720;SDS011;42950;52.134;5.578;2023-12-14T06:53:39;11.20;;;9.95;;
23720;SDS011;42950;52.134;5.578;2023-12-14T06:56:06;12.23;;;9.93;;
23720;SDS011;42950;52.134;5.578;2023-12-14T06:58:35;12.50;;;10.25;;
23720;SDS011;42950;52.134;5.578;2023-12-14T07:01:04;13.93;;;10.65;;
23720;SDS011;42950;52.134;5.578;2023-12-14T07:03:30;12.70;;;9.48;;
23720;SDS011;42950;52.134;5.578;2023-12-14T07:05:56;13.07;;;10.35;;
23720;SDS011;42950;52.134;5.578;2023-12-14T07:08:22;11.95;;;9.95;;
23720;SDS011;42950;52.134;5.578;2023-12-14T07:10:48;13.73;;;10.23;;
23720;SDS011;42950;52.134;5.578;2023-12-14T07:13:14;14.35;;;9.23;;
23720;SDS011;42950;52.134;5.578;2023-12-14T07:15:39;11.65;;;9.95;;
23720;SDS011;42950;52.134;5.578;2023-12-14T07:18:05;12.13;;;9.65;;
23720;SDS011;42950;52.134;5.578;2023-12-14T07:20:30;12.05;;;9.88;;
23720;SDS011;42950;52.134;5.578;2023-12-14T07:22:56;12.80;;;10.15;;
23720;SDS011;42950;52.134;5.578;2023-12-14T07:25:22;11.15;;;9.13;;
23720;SDS011;42950;52.134;5.578;2023-12-14T07:27:47;11.70;;;8.95;;
23720;SDS011;42950;52.134;5.578;2023-12-14T07:30:13;10.90;;;9.25;;
23720;SDS011;42950;52.134;5.578;2023-12-14T07:32:38;10.05;;;9.02;;
23720;SDS011;42950;52.134;5.578;2023-12-14T07:35:04;13.57;;;10.05;;
23720;SDS011;42950;52.134;5.578;2023-12-14T07:37:30;10.80;;;9.40;;
23720;SDS011;42950;52.134;5.578;2023-12-14T07:39:56;12.20;;;10.23;;
23720;SDS011;42950;52.134;5.578;2023-12-14T07:42:22;11.45;;;9.30;;
23720;SDS011;42950;52.134;5.578;2023-12-14T07:44:48;11.95;;;9.98;;
23720;SDS011;42950;52.134;5.578;2023-12-14T07:47:14;11.65;;;9.90;;
23720;SDS011;42950;52.134;5.578;2023-12-14T07:49:39;12.45;;;9.45;;
23720;SDS011;42950;52.134;5.578;2023-12-14T07:52:05;11.73;;;9.65;;
23720;SDS011;42950;52.134;5.578;2023-12-14T07:54:31;10.75;;;9.60;;
23720;SDS011;42950;52.134;5.578;2023-12-14T07:56:56;10.48;;;9.20;;
23720;SDS011;42950;52.134;5.578;2023-12-14T07:59:22;10.57;;;9.43;;
23720;SDS011;42950;52.134;5.578;2023-12-14T08:01:47;10.90;;;8.98;;
23720;SDS011;42950;52.134;5.578;2023-12-14T08:04:13;11.38;;;8.82;;
23720;SDS011;42950;52.134;5.578;2023-12-14T08:06:39;13.73;;;9.25;;
23720;SDS011;42950;52.134;5.578;2023-12-14T08:09:05;13.00;;;9.13;;
23720;SDS011;42950;52.134;5.578;2023-12-14T08:11:31;10.35;;;9.20;;
23720;SDS011;42950;52.134;5.578;2023-12-14T08:13:57;10.10;;;9.10;;
23720;SDS011;42950;52.134;5.578;2023-12-14T08:16:23;9.90;;;8.90;;
23720;SDS011;42950;52.134;5.578;2023-12-14T08:18:48;10.50;;;8.90;;
23720;SDS011;42950;52.134;5.578;2023-12-14T08:21:14;11.00;;;8.75;;
23720;SDS011;42950;52.134;5.578;2023-12-14T08:23:40;10.60;;;8.43;;
23720;SDS011;42950;52.134;5.578;2023-12-14T08:26:06;11.63;;;9.23;;
23720;SDS011;42950;52.134;5.578;2023-12-14T08:28:33;10.70;;;9.52;;
23720;SDS011;42950;52.134;5.578;2023-12-14T08:30:59;10.80;;;9.63;;
23720;SDS011;42950;52.134;5.578;2023-12-14T08:33:27;11.55;;;9.45;;
23720;SDS011;42950;52.134;5.578;2023-12-14T08:35:53;13.93;;;9.68;;
23720;SDS011;42950;52.134;5.578;2023-12-14T08:38:18;11.98;;;10.05;;
23720;SDS011;42950;52.134;5.578;2023-12-14T08:40:44;12.20;;;9.75;;
23720;SDS011;42950;52.134;5.578;2023-12-14T08:43:10;14.93;;;10.55;;
23720;SDS011;42950;52.134;5.578;2023-12-14T08:45:35;14.63;;;10.45;;
23720;SDS011;42950;52.134;5.578;2023-12-14T08:48:01;11.60;;;10.07;;
23720;SDS011;42950;52.134;5.578;2023-12-14T08:50:26;12.65;;;9.95;;
23720;SDS011;42950;52.134;5.578;2023-12-14T08:52:52;14.63;;;10.75;;
23720;SDS011;42950;52.134;5.578;2023-12-14T08:55:18;14.15;;;11.10;;
23720;SDS011;42950;52.134;5.578;2023-12-14T08:57:44;11.75;;;10.48;;
23720;SDS011;42950;52.134;5.578;2023-12-14T09:00:09;14.82;;;11.85;;
23720;SDS011;42950;52.134;5.578;2023-12-14T09:02:35;14.40;;;11.13;;
23720;SDS011;42950;52.134;5.578;2023-12-14T09:05:01;12.65;;;10.40;;
23720;SDS011;42950;52.134;5.578;2023-12-14T09:07:27;13.38;;;11.18;;
23720;SDS011;42950;52.134;5.578;2023-12-14T09:09:53;12.82;;;10.70;;
23720;SDS011;42950;52.134;5.578;2023-12-14T09:12:19;12.77;;;10.82;;
23720;SDS011;42950;52.134;5.578;2023-12-14T09:14:44;12.95;;;10.30;;
23720;SDS011;42950;52.134;5.578;2023-12-14T09:17:10;11.65;;;9.80;;
23720;SDS011;42950;52.134;5.578;2023-12-14T09:19:35;13.43;;;10.35;;
23720;SDS011;42950;52.134;5.578;2023-12-14T09:22:01;12.02;;;10.48;;
23720;SDS011;42950;52.134;5.578;2023-12-14T09:24:26;10.80;;;9.68;;
23720;SDS011;42950;52.134;5.578;2023-12-14T09:26:52;10.57;;;9.45;;
23720;SDS011;42950;52.134;5.578;2023-12-14T09:29:18;10.70;;;9.60;;
23720;SDS011;42950;52.134;5.578;2023-12-14T09:31:43;13.52;;;10.30;;
23720;SDS011;42950;52.134;5.578;2023-12-14T09:34:10;12.73;;;10.20;;
23720;SDS011;42950;52.134;5.578;2023-12-14T09:36:36;12.55;;;10.40;;
23720;SDS011;42950;52.134;5.578;2023-12-14T09:39:02;13.55;;;10.27;;
23720;SDS011;42950;52.134;5.578;2023-12-14T09:41:28;13.02;;;9.95;;
23720;SDS011;42950;52.134;5.578;2023-12-14T09:50:38;12.75;;;9.90;;
23720;SDS011;42950;52.134;5.578;2023-12-14T09:53:05;12.98;;;9.65;;
23720;SDS011;42950;52.134;5.578;2023-12-14T09:55:31;10.13;;;8.90;;
23720;SDS011;42950;52.134;5.578;2023-12-14T09:57:57;12.57;;;9.70;;
23720;SDS011;42950;52.134;5.578;2023-12-14T10:00:35;12.52;;;9.30;;
23720;SDS011;42950;52.134;5.578;2023-12-14T10:05:53;10.38;;;8.80;;
23720;SDS011;42950;52.134;5.578;2023-12-14T10:08:19;11.63;;;9.35;;
23720;SDS011;42950;52.134;5.578;2023-12-14T10:10:51;10.98;;;9.32;;
23720;SDS011;42950;52.134;5.578;2023-12-14T10:13:18;13.70;;;9.75;;
23720;SDS011;42950;52.134;5.578;2023-12-14T10:15:45;11.68;;;9.55;;
23720;SDS011;42950;52.134;5.578;2023-12-14T10:18:12;10.07;;;8.60;;
23720;SDS011;42950;52.134;5.578;2023-12-14T10:20:47;11.90;;;8.68;;
23720;SDS011;42950;52.134;5.578;2023-12-14T10:23:12;9.82;;;8.15;;
23720;SDS011;42950;52.134;5.578;2023-12-14T10:25:38;10.98;;;8.27;;
23720;SDS011;42950;52.134;5.578;2023-12-14T10:28:03;10.02;;;8.98;;
23720;SDS011;42950;52.134;5.578;2023-12-14T10:30:29;9.45;;;8.43;;
23720;SDS011;42950;52.134;5.578;2023-12-14T10:32:56;9.73;;;8.23;;
23720;SDS011;42950;52.134;5.578;2023-12-14T10:35:22;11.57;;;8.90;;
23720;SDS011;42950;52.134;5.578;2023-12-14T10:37:49;10.68;;;9.00;;
23720;SDS011;42950;52.134;5.578;2023-12-14T10:40:17;10.63;;;8.35;;
23720;SDS011;42950;52.134;5.578;2023-12-14T10:42:43;10.95;;;8.50;;
23720;SDS011;42950;52.134;5.578;2023-12-14T10:45:13;10.27;;;7.90;;
23720;SDS011;42950;52.134;5.578;2023-12-14T10:47:44;10.10;;;9.00;;
23720;SDS011;42950;52.134;5.578;2023-12-14T10:50:12;10.07;;;8.82;;
23720;SDS011;42950;52.134;5.578;2023-12-14T10:52:41;14.32;;;9.05;;
23720;SDS011;42950;52.134;5.578;2023-12-14T10:55:07;13.20;;;9.13;;
23720;SDS011;42950;52.134;5.578;2023-12-14T10:57:40;11.45;;;9.57;;
23720;SDS011;42950;52.134;5.578;2023-12-14T11:00:05;12.63;;;8.90;;
23720;SDS011;42950;52.134;5.578;2023-12-14T11:02:40;12.63;;;9.82;;
23720;SDS011;42950;52.134;5.578;2023-12-14T11:05:10;10.63;;;9.02;;
23720;SDS011;42950;52.134;5.578;2023-12-14T11:10:19;12.38;;;8.55;;
23720;SDS011;42950;52.134;5.578;2023-12-14T11:12:55;10.25;;;8.50;;
23720;SDS011;42950;52.134;5.578;2023-12-14T11:15:25;9.80;;;8.43;;
23720;SDS011;42950;52.134;5.578;2023-12-14T11:23:12;13.02;;;8.40;;
23720;SDS011;42950;52.134;5.578;2023-12-14T11:25:39;11.98;;;8.75;;
23720;SDS011;42950;52.134;5.578;2023-12-14T11:28:06;10.00;;;8.05;;
23720;SDS011;42950;52.134;5.578;2023-12-14T11:30:33;8.88;;;7.60;;
23720;SDS011;42950;52.134;5.578;2023-12-14T11:33:00;9.52;;;7.88;;
23720;SDS011;42950;52.134;5.578;2023-12-14T11:35:25;9.45;;;8.13;;
23720;SDS011;42950;52.134;5.578;2023-12-14T11:37:51;11.70;;;8.20;;
23720;SDS011;42950;52.134;5.578;2023-12-14T11:40:17;10.52;;;8.27;;
23720;SDS011;42950;52.134;5.578;2023-12-14T11:42:57;9.50;;;8.35;;
23720;SDS011;42950;52.134;5.578;2023-12-14T11:45:26;10.73;;;8.18;;
23720;SDS011;42950;52.134;5.578;2023-12-14T11:47:53;11.70;;;8.63;;
23720;SDS011;42950;52.134;5.578;2023-12-14T11:50:18;9.82;;;8.80;;
23720;SDS011;42950;52.134;5.578;2023-12-14T11:52:45;9.75;;;8.45;;
23720;SDS011;42950;52.134;5.578;2023-12-14T11:55:11;11.82;;;8.38;;
23720;SDS011;42950;52.134;5.578;2023-12-14T11:57:36;9.43;;;8.40;;
23720;SDS011;42950;52.134;5.578;2023-12-14T12:00:02;9.38;;;8.35;;
23720;SDS011;42950;52.134;5.578;2023-12-14T12:02:29;13.15;;;8.70;;
23720;SDS011;42950;52.134;5.578;2023-12-14T12:04:54;10.90;;;8.85;;
23720;SDS011;42950;52.134;5.578;2023-12-14T12:07:20;10.50;;;8.65;;
23720;SDS011;42950;52.134;5.578;2023-12-14T12:09:46;10.27;;;8.20;;
23720;SDS011;42950;52.134;5.578;2023-12-14T12:12:12;11.02;;;8.57;;
23720;SDS011;42950;52.134;5.578;2023-12-14T12:14:40;12.68;;;8.57;;
23720;SDS011;42950;52.134;5.578;2023-12-14T12:17:06;10.35;;;8.80;;
23720;SDS011;42950;52.134;5.578;2023-12-14T12:19:33;10.15;;;8.45;;
23720;SDS011;42950;52.134;5.578;2023-12-14T12:21:59;13.68;;;9.02;;
23720;SDS011;42950;52.134;5.578;2023-12-14T12:24:25;11.38;;;8.85;;
23720;SDS011;42950;52.134;5.578;2023-12-14T12:26:50;9.40;;;8.20;;
23720;SDS011;42950;52.134;5.578;2023-12-14T12:29:16;9.90;;;8.25;;
23720;SDS011;42950;52.134;5.578;2023-12-14T12:31:42;8.75;;;7.80;;
23720;SDS011;42950;52.134;5.578;2023-12-14T12:34:10;10.55;;;8.38;;
23720;SDS011;42950;52.134;5.578;2023-12-14T12:36:36;10.15;;;8.65;;
23720;SDS011;42950;52.134;5.578;2023-12-14T12:39:02;12.43;;;9.13;;
23720;SDS011;42950;52.134;5.578;2023-12-14T12:41:29;11.73;;;9.00;;
23720;SDS011;42950;52.134;5.578;2023-12-14T12:43:54;12.32;;;9.10;;
23720;SDS011;42950;52.134;5.578;2023-12-14T12:46:20;9.80;;;8.25;;
23720;SDS011;42950;52.134;5.578;2023-12-14T12:48:46;10.65;;;8.80;;
23720;SDS011;42950;52.134;5.578;2023-12-14T12:51:12;12.48;;;8.63;;
23720;SDS011;42950;52.134;5.578;2023-12-14T12:53:37;12.68;;;8.25;;
23720;SDS011;42950;52.134;5.578;2023-12-14T12:56:04;10.85;;;8.68;;
23720;SDS011;42950;52.134;5.578;2023-12-14T12:58:30;9.93;;;8.35;;
23720;SDS011;42950;52.134;5.578;2023-12-14T13:00:55;11.45;;;8.90;;
23720;SDS011;42950;52.134;5.578;2023-12-14T13:03:22;10.43;;;8.77;;
23720;SDS011;42950;52.134;5.578;2023-12-14T13:05:48;11.77;;;9.18;;
23720;SDS011;42950;52.134;5.578;2023-12-14T13:08:13;9.85;;;8.82;;
23720;SDS011;42950;52.134;5.578;2023-12-14T13:10:39;10.48;;;8.73;;
23720;SDS011;42950;52.134;5.578;2023-12-14T13:13:05;11.23;;;8.90;;
23720;SDS011;42950;52.134;5.578;2023-12-14T13:15:33;9.95;;;8.55;;
23720;SDS011;42950;52.134;5.578;2023-12-14T13:18:00;12.88;;;9.48;;
23720;SDS011;42950;52.134;5.578;2023-12-14T13:20:25;10.25;;;9.00;;
23720;SDS011;42950;52.134;5.578;2023-12-14T13:22:51;11.90;;;9.32;;
23720;SDS011;42950;52.134;5.578;2023-12-14T13:25:17;11.52;;;8.85;;
23720;SDS011;42950;52.134;5.578;2023-12-14T13:27:44;11.13;;;9.00;;
23720;SDS011;42950;52.134;5.578;2023-12-14T13:30:10;11.93;;;8.70;;
23720;SDS011;42950;52.134;5.578;2023-12-14T13:32:37;10.80;;;9.32;;
23720;SDS011;42950;52.134;5.578;2023-12-14T13:35:02;10.20;;;8.45;;
23720;SDS011;42950;52.134;5.578;2023-12-14T13:37:28;10.57;;;9.43;;
23720;SDS011;42950;52.134;5.578;2023-12-14T13:39:54;12.02;;;9.05;;
23720;SDS011;42950;52.134;5.578;2023-12-14T13:42:20;12.35;;;9.23;;
23720;SDS011;42950;52.134;5.578;2023-12-14T13:44:46;11.90;;;9.50;;
23720;SDS011;42950;52.134;5.578;2023-12-14T13:47:11;11.48;;;10.25;;
23720;SDS011;42950;52.134;5.578;2023-12-14T13:49:37;12.75;;;10.68;;
23720;SDS011;42950;52.134;5.578;2023-12-14T13:52:03;11.50;;;10.15;;
23720;SDS011;42950;52.134;5.578;2023-12-14T13:54:29;11.52;;;9.77;;
23720;SDS011;42950;52.134;5.578;2023-12-14T13:56:55;11.40;;;9.60;;
23720;SDS011;42950;52.134;5.578;2023-12-14T13:59:20;15.82;;;10.40;;
23720;SDS011;42950;52.134;5.578;2023-12-14T14:01:46;13.27;;;10.02;;
23720;SDS011;42950;52.134;5.578;2023-12-14T14:04:15;13.93;;;10.75;;
23720;SDS011;42950;52.134;5.578;2023-12-14T14:06:42;13.30;;;9.80;;
23720;SDS011;42950;52.134;5.578;2023-12-14T14:09:07;12.18;;;9.85;;
23720;SDS011;42950;52.134;5.578;2023-12-14T14:11:33;12.63;;;11.27;;
23720;SDS011;42950;52.134;5.578;2023-12-14T14:14:00;14.20;;;11.75;;
23720;SDS011;42950;52.134;5.578;2023-12-14T14:16:26;12.35;;;9.80;;
23720;SDS011;42950;52.134;5.578;2023-12-14T14:18:51;15.13;;;10.38;;
23720;SDS011;42950;52.134;5.578;2023-12-14T14:21:17;11.35;;;10.15;;
23720;SDS011;42950;52.134;5.578;2023-12-14T14:23:43;11.63;;;9.85;;
23720;SDS011;42950;52.134;5.578;2023-12-14T14:26:09;12.98;;;10.07;;
23720;SDS011;42950;52.134;5.578;2023-12-14T14:28:35;14.82;;;10.45;;
23720;SDS011;42950;52.134;5.578;2023-12-14T14:31:01;12.77;;;10.00;;
23720;SDS011;42950;52.134;5.578;2023-12-14T14:33:27;15.13;;;10.38;;
23720;SDS011;42950;52.134;5.578;2023-12-14T14:35:52;13.02;;;10.50;;
23720;SDS011;42950;52.134;5.578;2023-12-14T14:38:18;12.02;;;9.98;;
23720;SDS011;42950;52.134;5.578;2023-12-14T14:40:44;11.85;;;10.30;;
23720;SDS011;42950;52.134;5.578;2023-12-14T14:43:10;13.30;;;9.55;;